Portada
METAR-TAF:

METAR-TAF

Aeroports :

Visakhapatnam, Índia

latitud: 17-43-16N, longitud: 83-13-28E, altitud: 6 m

Observació

L'informe es va fer fa 41 minuts, a les 20:00 UTC
Vent 2 kt amb direcció variable
Temperatura 27°C
Humitat 94%
Pressió 1004 hPa
Visibilitat: 3500 m
Escasses núvols a una alçada de 1400 ft
boirina

METAR: VOVZ 162000Z VRB02KT 3500 BR FEW014 27/26 Q1004 NOSIG

Hora: 02:11 (20:41 UTC)

Pronòstic

L'informe es va fer fa 41 minuts, a les 20:00 UTC
Pronòstic vàlid del 16 a les 21 UTC al 17 a les 06 UTC
Vent 2 kt amb direcció variable
Visibilitat: 3500 m
Escasses núvols a una alçada de 1400 ft
Núvols disperses a una alçada de 9000 ft
boirina
Temporalment
l' 17 a les 00 UTC al 17 a les 03 UTC
Vent 6 kt del Oest/Sud-Oest
Visibilitat: 2500 m
Escasses núvols a una alçada de 1200 ft
Cel ennuvolat a una alçada de 8000 ft
plugim, boirina

TAF: VOVZ 162000Z 1621/1706 VRB02KT 3500 BR FEW014 SCT090 TEMPO 1700/1703 24006KT 2500 DZ BR FEW012 BKN080

Observacions i pronòstics meteorològics de més de 4000 aeroports (METAR i TAF).

Les estacions disponibles són els punts grocs i vermells al mapa.

Posi el ratolí al punt desitjat per veure el nom de l'estació.

Feu clic per veure les observacions i els pronòstics meteorològics.

Per canviar el mapa: feu clic els botons verds amb una creu de color negre per apropar; al botó verd amb un guió per allunyar la imatge; o en les fletxes verdes per a mapes adjacents.


METAR-TAF: